Date,TemperatureHighF,TemperatureAvgF,TemperatureLowF,DewpointHighF,DewpointAvgF,DewpointLowF,HumidityHigh,HumidityAvg,HumidityLow,PressureMaxIn,PressureMinIn,WindSpeedMaxMPH,WindSpeedAvgMPH,GustSpeedMaxMPH,PrecipitationSumIn
2013-4-1,93,71,52,70,59,48,91,68,42,29.86,29.71,13,3,13,0.00
2013-4-2,79,65,51,67,60,48,93,85,63,29.81,29.63,23,2,23,0.58
2013-4-3,53,50,47,51,48,45,94,94,91,29.93,29.66,9,2,9,0.36
2013-4-4,62,49,36,50,43,33,94,81,59,30.00,29.89,10,2,10,0.00
2013-4-5,78,56,32,60,42,29,93,64,35,30.04,29.84,8,2,8,0.00
2013-4-6,82,66,49,57,52,44,87,63,41,29.85,29.65,19,5,19,0.00
2013-4-7,80,68,60,64,59,54,84,74,55,29.72,29.55,14,5,14,0.00
2013-4-8,73,68,65,66,62,59,90,82,74,29.63,29.48,15,6,15,0.00
2013-4-9,83,73,68,68,65,63,86,78,58,29.52,29.40,17,6,17,0.00
2013-4-10,72,55,43,67,50,38,92,83,69,29.75,29.45,19,4,19,0.32
2013-4-11,73,55,41,47,40,36,84,60,33,29.76,29.60,8,2,8,0.02
2013-4-12,85,62,37,60,42,34,91,55,25,29.79,29.65,10,2,10,0.00
2013-4-13,84,65,52,59,50,44,83,62,30,29.76,29.59,11,2,11,0.00
2013-4-14,90,72,56,66,59,50,88,64,40,29.62,29.40,18,4,18,0.00
2013-4-15,90,77,68,67,65,63,88,68,46,29.62,29.49,15,5,15,0.00
2013-4-16,89,77,67,68,65,62,84,68,48,29.71,29.60,14,6,14,0.00
2013-4-17,85,75,71,69,68,66,91,78,56,29.70,29.48,18,6,18,0.00
2013-4-18,72,61,48,69,52,37,91,75,52,29.91,29.45,15,4,15,0.38
2013-4-19,77,56,37,49,34,27,81,49,19,30.09,29.91,11,2,11,0.00
2013-4-20,75,54,30,49,32,25,89,50,21,30.01,29.79,14,3,14,0.00
2013-4-21,79,64,46,54,49,40,84,60,42,29.94,29.81,11,3,11,0.00
2013-4-22,87,71,52,60,56,48,88,61,38,29.89,29.67,13,4,13,0.00
2013-4-23,80,64,48,66,54,39,86,72,51,29.94,29.64,12,3,13,0.00
2013-4-24,69,54,43,40,37,34,76,54,33,30.07,29.94,12,3,12,0.00
2013-4-25,69,60,51,46,43,38,64,53,41,30.12,29.96,8,2,8,0.00
2013-4-26,77,67,58,69,60,43,92,80,49,29.97,29.81,13,3,13,0.02
2013-4-27,96,75,67,75,65,60,91,73,44,29.89,29.75,8,2,8,0.04
2013-4-28,95,76,60,72,60,53,91,62,33,29.85,29.66,10,2,10,0.00
2013-4-29,98,74,62,74,62,58,90,70,38,29.74,29.59,18,3,18,0.26
2013-4-30,92,73,59,71,62,55,94,71,43,29.66,29.53,10,2,10,0.01